METAR (acronimo di METeorological Air Report) è un messaggio meteo emesso nella maggior parte dei casi in ambito aeroportuale

LIPF - Ferrara, It
Distanza dalla Stazione: 8 km
Ultimo Aggiornamento: Giovedì 27 Giugno 2019 12:55 CEST
Sereno
Sereno
 Wind from varies
Vento: variabile 0 km/h
Temperatura: 37°C
Heat Index: 45°C
Punto di Rugiada: 24°C
Umidità: 47%
Barometro: 1018 hPa
Condizioni: Sereno
Visibilità: superiore a 10 km
2019/06/27 10:55 LIPF 271055Z /////KT CAVOK 37/24 Q1018
LIPE - Bologna Borgo Panigale, It
Distanza dalla Stazione: 46 km
Ultimo Aggiornamento: Giovedì 27 Giugno 2019 13:50 CEST
Sereno
Sereno
 Wind from Ovest-Sud-Ovest
Vento: Ovest-Sud-Ovest 7 km/h
Temperatura: 35°C
Heat Index: 38°C
Punto di Rugiada: 20°C
Umidità: 41%
Barometro: 1017 hPa
Condizioni: Sereno
Visibilità: superiore a 10 km
2019/06/27 11:50 LIPE 271150Z 24004KT 180V320 CAVOK 35/20 Q1017
LIMF - Torino Caselle, It
Distanza dalla Stazione: 320 km
Ultimo Aggiornamento: Giovedì 27 Giugno 2019 13:50 CEST
Sereno
Sereno
 Wind from Sud-Ovest
Vento: Sud-Ovest 11 km/h
Temperatura: 34°C
Heat Index: 38°C
Punto di Rugiada: 22°C
Umidità: 49%
Barometro: 1020 hPa
Condizioni: Sereno
Visibilità: superiore a 10 km
2019/06/27 11:50 LIMF 271150Z 23006KT 180V300 CAVOK 34/22 Q1020
 
LIML - Milano Malpensa, It
Distanza dalla Stazione: 249 km
Ultimo Aggiornamento: Giovedì 27 Giugno 2019 13:50 CEST
Sereno
Sereno
 Wind from Sud-Ovest
Vento: Sud-Ovest 13 km/h
Temperatura: 35°C
Heat Index: 41°C
Punto di Rugiada: 23°C
Umidità: 50%
Barometro: 1018 hPa
Condizioni: Sereno
Visibilità: superiore a 10 km
2019/06/27 11:50 LIML 271150Z 23007KT 200V280 CAVOK 35/23 Q1018 NOSIG
LIME - Bergamo Orio al Serio, It
Distanza dalla Stazione: 181 km
Ultimo Aggiornamento: Giovedì 27 Giugno 2019 13:50 CEST
Sereno
Sereno
 Wind from Ovest
Vento: Ovest 11 km/h
Temperatura: 34°C
Heat Index: 38°C
Punto di Rugiada: 22°C
Umidità: 49%
Barometro: 1018 hPa
Condizioni: Sereno
Visibilità: superiore a 10 km
2019/06/27 11:50 LIME 271150Z 27006KT 230V320 CAVOK 34/22 Q1018 NOSIG
LIPZ - Venezia Tessera, It
Distanza dalla Stazione: 93 km
Ultimo Aggiornamento: Giovedì 27 Giugno 2019 13:50 CEST
Parzialmente Nuvoloso
Parzialmente Nuvoloso
 Wind from Sud
Vento: Sud 7 km/h
Temperatura: 34°C
Heat Index: 39°C
Punto di Rugiada: 23°C
Umidità: 53%
Barometro: 1017 hPa
Nuvole: Parzialmente Nuvoloso
Visibilità: 9 km
2019/06/27 11:50 LIPZ 271150Z 18004KT 9000 NSC 34/23 Q1017 NOSIG
 
LIVT - Trieste, It
Distanza dalla Stazione: 179 km
Ultimo Aggiornamento: Giovedì 27 Giugno 2019 12:55 CEST
Sereno
Sereno
 Wind from Ovest
Vento: Ovest 2 km/h
Temperatura: 30°C
Heat Index: 36°C
Punto di Rugiada: 25°C
Umidità: 75%
Barometro: 1018 hPa
Condizioni: Sereno
Visibilità: superiore a 10 km
2019/06/27 10:55 LIVT 271055Z 28001KT CAVOK 30/25 Q1018 RMK SKC QUK 1 QUL 0 VIS MAR 20 KM VIS MIN 9999
LIMJ - Genova, It
Distanza dalla Stazione: 229 km
Ultimo Aggiornamento: Giovedì 27 Giugno 2019 13:50 CEST
Sereno
Sereno
 Wind from Sud-Sud-Est
Vento: Sud-Sud-Est 9 km/h
Temperatura: 29°C
Heat Index: 32°C
Punto di Rugiada: 23°C
Umidità: 70%
Barometro: 1019 hPa
Condizioni: Sereno
Visibilità: superiore a 10 km
2019/06/27 11:50 LIMJ 271150Z 16005KT 130V190 CAVOK 29/23 Q1019
LIRQ - Firenze Amerigo Vespucci, It
Distanza dalla Stazione: 119 km
Ultimo Aggiornamento: Giovedì 27 Giugno 2019 13:50 CEST
Sereno
Sereno
 Wind from varies
Vento: variabile 7 km/h
Temperatura: 37°C
Punto di Rugiada: 17°C
Umidità: 31%
Barometro: 1018 hPa
Condizioni: Sereno
Visibilità: superiore a 10 km
2019/06/27 11:50 LIRQ 271150Z VRB04KT CAVOK 37/17 Q1018
 
LIPY - Ancona, It
Distanza dalla Stazione: 189 km
Ultimo Aggiornamento: Giovedì 27 Giugno 2019 12:50 CEST
Sereno
Sereno
 Wind from Nord
Vento: Nord 19 km/h
Temperatura: 31°C
Heat Index: 35°C
Punto di Rugiada: 22°C
Umidità: 59%
Barometro: 1018 hPa
Condizioni: Sereno
Visibilità: superiore a 10 km
2019/06/27 10:50 LIPY 271050Z 35010KT CAVOK 31/22 Q1018
LIBP - Pescara, It
Distanza dalla Stazione: 333 km
Ultimo Aggiornamento: Giovedì 27 Giugno 2019 12:50 CEST
Sereno
Sereno
 Wind from Nord-Est
Vento: Nord-Est 19 km/h
Temperatura: 33°C
Punto di Rugiada: 16°C
Umidità: 36%
Barometro: 1019 hPa
Condizioni: Sereno
Visibilità: superiore a 10 km
2019/06/27 10:50 LIBP 271050Z 04010KT CAVOK 33/16 Q1019
LIRF - Roma-Fiumicino, It
Distanza dalla Stazione: 334 km
Ultimo Aggiornamento: Giovedì 27 Giugno 2019 13:50 CEST
Sereno
Sereno
 Wind from Ovest-Nord-Ovest
Vento: Ovest-Nord-Ovest 22 km/h
Temperatura: 33°C
Heat Index: 35°C
Punto di Rugiada: 20°C
Umidità: 46%
Barometro: 1017 hPa
Condizioni: Sereno
Visibilità: superiore a 10 km
2019/06/27 11:50 LIRF 271150Z 29012KT CAVOK 33/20 Q1017 NOSIG
 
LIRN - Napoli Capodichino, It
Distanza dalla Stazione: 494 km
Ultimo Aggiornamento: Giovedì 27 Giugno 2019 13:50 CEST
Qualche Nuvola
Qualche Nuvola
 Wind from Est-Nord-Est
Vento: Est-Nord-Est 9 km/h
Temperatura: 35°C
Punto di Rugiada: 18°C
Umidità: 36%
Barometro: 1016 hPa
Nuvole: Qualche Nuvola
Visibilità: 10 km
Nuvole nel Dettaglio: Qualche Nuvola 914 m
2019/06/27 11:50 LIRN 271150Z 07005KT 030V170 9999 FEW030 35/18 Q1016 NOSIG
LIBD - Bari Palese, It
Distanza dalla Stazione: 594 km
Ultimo Aggiornamento: Giovedì 27 Giugno 2019 13:50 CEST
Sereno
Sereno
 Wind from Nord-Nord-Est
Vento: Nord-Nord-Est 13 km/h
Temperatura: 30°C
Heat Index: 31°C
Punto di Rugiada: 19°C
Umidità: 52%
Barometro: 1017 hPa
Condizioni: Sereno
Visibilità: superiore a 10 km
2019/06/27 11:50 LIBD 271150Z 03007KT 340V070 CAVOK 30/19 Q1017
LIBG - Taranto Grottaglie, It
Distanza dalla Stazione: 670 km
Ultimo Aggiornamento: Giovedì 27 Giugno 2019 12:50 CEST
Sereno
Sereno
 Wind from Nord-Nord-Est
Vento: Nord-Nord-Est 19 km/h
Temperatura: 33°C
Heat Index: 35°C
Punto di Rugiada: 20°C
Umidità: 46%
Barometro: 1015 hPa
Condizioni: Sereno
Visibilità: superiore a 10 km
2019/06/27 10:50 LIBG 271050Z 03010KT 360V070 CAVOK 33/20 Q1015
 
LICR - Reggio Calabria, It
Distanza dalla Stazione: 819 km
Ultimo Aggiornamento: Giovedì 27 Giugno 2019 12:50 CEST
Qualche Nuvola
Qualche Nuvola
 Wind from Nord-Nord-Ovest
Vento: Nord-Nord-Ovest 26 km/h
Temperatura: 30°C
Heat Index: 31°C
Punto di Rugiada: 19°C
Umidità: 52%
Barometro: 1016 hPa
Nuvole: Qualche Nuvola
Visibilità: 10 km
Nuvole nel Dettaglio: Qualche Nuvola 1219 m
2019/06/27 10:50 LICR 271050Z 34014KT 9999 FEW040 30/19 Q1016
LICJ - Palermo Punta Raisi, It
Distanza dalla Stazione: 762 km
Ultimo Aggiornamento: Giovedì 27 Giugno 2019 13:50 CEST
Sereno
Sereno
 Wind from Nord-Est
Vento: Nord-Est 24 km/h
Temperatura: 27°C
Heat Index: 30°C
Punto di Rugiada: 23°C
Umidità: 79%
Barometro: 1016 hPa
Condizioni: Sereno
Visibilità: superiore a 10 km
2019/06/27 11:50 LICJ 271150Z 04013KT CAVOK 27/23 Q1016
LICC - Catania Fontanarossa, It
Distanza dalla Stazione: 866 km
Ultimo Aggiornamento: Giovedì 27 Giugno 2019 13:50 CEST
Parzialmente Nuvoloso
Parzialmente Nuvoloso
 Wind from Est-Nord-Est
Vento: Est-Nord-Est 22 km/h
Temperatura: 31°C
Heat Index: 31°C
Punto di Rugiada: 16°C
Umidità: 40%
Barometro: 1015 hPa
Nuvole: Parzialmente Nuvoloso
Visibilità: 10 km
Nuvole nel Dettaglio: Parzialmente Nuvoloso 3658 m
2019/06/27 11:50 LICC 271150Z 07012KT 9999 SCT120 31/16 Q1015
 
LIEE - Cagliari Elmas, It
Distanza dalla Stazione: 655 km
Ultimo Aggiornamento: Giovedì 27 Giugno 2019 13:50 CEST
Qualche Nuvola
Qualche Nuvola
 Wind from Sud
Vento: Sud 15 km/h
Temperatura: 33°C
Punto di Rugiada: 17°C
Umidità: 38%
Barometro: 1018 hPa
Nuvole: Qualche Nuvola
Visibilità: 10 km
Nuvole nel Dettaglio: Qualche Nuvola 1219 m
2019/06/27 11:50 LIEE 271150Z 18008KT 9999 FEW040 33/17 Q1018
LIEO - Olbia, It
Distanza dalla Stazione: 463 km
Ultimo Aggiornamento: Giovedì 27 Giugno 2019 13:50 CEST
Sereno
Sereno
 Wind from Est-Nord-Est
Vento: Est-Nord-Est 22 km/h
Temperatura: 33°C
Heat Index: 34°C
Punto di Rugiada: 19°C
Umidità: 44%
Barometro: 1018 hPa
Condizioni: Sereno
Visibilità: superiore a 10 km
2019/06/27 11:50 LIEO 271150Z 06012KT CAVOK 33/19 Q1018
LICG - Pantelleria, It
Distanza dalla Stazione: 893 km
Ultimo Aggiornamento: Giovedì 27 Giugno 2019 12:50 CEST
Sereno
Sereno
 Wind from Nord
Vento: Nord 15 km/h
Temperatura: 30°C
Heat Index: 31°C
Punto di Rugiada: 19°C
Umidità: 52%
Barometro: 1018 hPa
Condizioni: Sereno
Visibilità: superiore a 10 km
2019/06/27 10:50 LICG 271050Z 36008KT 330V060 CAVOK 30/19 Q1018